sensor_id;sensor_type;location;lat;lon;timestamp;P1;durP1;ratioP1;P2;durP2;ratioP2
11143;SDS011;5626;44.730;10.276;2022-09-01T00:00:14;4.97;;;4.47;;
11143;SDS011;5626;44.730;10.276;2022-09-01T00:02:48;6.78;;;6.05;;
11143;SDS011;5626;44.730;10.276;2022-09-01T00:05:17;7.10;;;6.40;;
11143;SDS011;5626;44.730;10.276;2022-09-01T00:07:47;7.00;;;6.40;;
11143;SDS011;5626;44.730;10.276;2022-09-01T00:10:18;6.35;;;5.75;;
11143;SDS011;5626;44.730;10.276;2022-09-01T00:12:48;9.02;;;8.13;;
11143;SDS011;5626;44.730;10.276;2022-09-01T00:15:17;6.95;;;5.97;;
11143;SDS011;5626;44.730;10.276;2022-09-01T00:17:47;7.30;;;5.80;;
11143;SDS011;5626;44.730;10.276;2022-09-01T00:20:17;6.82;;;5.53;;
11143;SDS011;5626;44.730;10.276;2022-09-01T00:22:46;5.82;;;5.35;;
11143;SDS011;5626;44.730;10.276;2022-09-01T00:25:18;5.45;;;4.97;;
11143;SDS011;5626;44.730;10.276;2022-09-01T00:27:48;6.72;;;5.13;;
11143;SDS011;5626;44.730;10.276;2022-09-01T00:30:18;5.97;;;5.47;;
11143;SDS011;5626;44.730;10.276;2022-09-01T00:32:48;6.13;;;4.80;;
11143;SDS011;5626;44.730;10.276;2022-09-01T00:35:18;5.80;;;5.20;;
11143;SDS011;5626;44.730;10.276;2022-09-01T00:37:48;5.43;;;4.93;;
11143;SDS011;5626;44.730;10.276;2022-09-01T00:40:19;5.80;;;5.30;;
11143;SDS011;5626;44.730;10.276;2022-09-01T00:42:49;6.80;;;5.00;;
11143;SDS011;5626;44.730;10.276;2022-09-01T00:45:20;6.97;;;6.30;;
11143;SDS011;5626;44.730;10.276;2022-09-01T00:47:50;7.35;;;6.75;;
11143;SDS011;5626;44.730;10.276;2022-09-01T00:50:20;7.50;;;6.90;;
11143;SDS011;5626;44.730;10.276;2022-09-01T00:52:50;7.32;;;6.63;;
11143;SDS011;5626;44.730;10.276;2022-09-01T00:55:25;6.90;;;6.30;;
11143;SDS011;5626;44.730;10.276;2022-09-01T00:57:58;7.18;;;6.57;;
11143;SDS011;5626;44.730;10.276;2022-09-01T01:00:29;8.80;;;6.78;;
11143;SDS011;5626;44.730;10.276;2022-09-01T01:03:01;7.72;;;6.95;;
11143;SDS011;5626;44.730;10.276;2022-09-01T01:05:31;7.53;;;6.70;;
11143;SDS011;5626;44.730;10.276;2022-09-01T01:08:06;7.25;;;6.65;;
11143;SDS011;5626;44.730;10.276;2022-09-01T01:10:40;6.25;;;5.65;;
11143;SDS011;5626;44.730;10.276;2022-09-01T01:13:15;5.63;;;5.10;;
11143;SDS011;5626;44.730;10.276;2022-09-01T01:15:45;6.10;;;4.20;;
11143;SDS011;5626;44.730;10.276;2022-09-01T01:18:14;8.13;;;4.45;;
11143;SDS011;5626;44.730;10.276;2022-09-01T01:20:45;6.68;;;4.60;;
11143;SDS011;5626;44.730;10.276;2022-09-01T01:23:38;5.18;;;4.78;;
11143;SDS011;5626;44.730;10.276;2022-09-01T01:26:14;5.32;;;4.82;;
11143;SDS011;5626;44.730;10.276;2022-09-01T01:28:44;5.80;;;5.07;;
11143;SDS011;5626;44.730;10.276;2022-09-01T01:31:14;6.32;;;5.47;;
11143;SDS011;5626;44.730;10.276;2022-09-01T01:33:49;7.00;;;5.55;;
11143;SDS011;5626;44.730;10.276;2022-09-01T01:36:22;7.53;;;6.82;;
11143;SDS011;5626;44.730;10.276;2022-09-01T01:39:01;8.00;;;7.18;;
11143;SDS011;5626;44.730;10.276;2022-09-01T01:41:37;7.60;;;6.90;;
11143;SDS011;5626;44.730;10.276;2022-09-01T01:44:13;9.05;;;8.35;;
11143;SDS011;5626;44.730;10.276;2022-09-01T01:46:45;8.75;;;7.95;;
11143;SDS011;5626;44.730;10.276;2022-09-01T01:49:18;9.95;;;8.88;;
11143;SDS011;5626;44.730;10.276;2022-09-01T01:51:51;9.95;;;8.95;;
11143;SDS011;5626;44.730;10.276;2022-09-01T01:54:25;9.32;;;8.57;;
11143;SDS011;5626;44.730;10.276;2022-09-01T01:57:00;9.30;;;8.60;;
11143;SDS011;5626;44.730;10.276;2022-09-01T01:59:31;10.73;;;8.93;;
11143;SDS011;5626;44.730;10.276;2022-09-01T02:02:01;9.70;;;8.90;;
11143;SDS011;5626;44.730;10.276;2022-09-01T02:04:36;9.93;;;9.02;;
11143;SDS011;5626;44.730;10.276;2022-09-01T02:07:10;9.77;;;8.88;;
11143;SDS011;5626;44.730;10.276;2022-09-01T02:09:41;8.18;;;7.47;;
11143;SDS011;5626;44.730;10.276;2022-09-01T02:12:16;9.30;;;8.50;;
11143;SDS011;5626;44.730;10.276;2022-09-01T02:14:46;10.20;;;9.20;;
11143;SDS011;5626;44.730;10.276;2022-09-01T02:17:16;10.30;;;9.18;;
11143;SDS011;5626;44.730;10.276;2022-09-01T02:19:48;9.73;;;8.90;;
11143;SDS011;5626;44.730;10.276;2022-09-01T02:22:24;10.35;;;9.45;;
11143;SDS011;5626;44.730;10.276;2022-09-01T02:24:54;10.20;;;9.23;;
11143;SDS011;5626;44.730;10.276;2022-09-01T02:27:25;10.23;;;9.32;;
11143;SDS011;5626;44.730;10.276;2022-09-01T02:29:56;9.88;;;8.93;;
11143;SDS011;5626;44.730;10.276;2022-09-01T02:32:26;9.27;;;8.38;;
11143;SDS011;5626;44.730;10.276;2022-09-01T02:34:56;9.63;;;8.25;;
11143;SDS011;5626;44.730;10.276;2022-09-01T02:37:27;9.73;;;8.82;;
11143;SDS011;5626;44.730;10.276;2022-09-01T02:39:57;8.52;;;7.63;;
11143;SDS011;5626;44.730;10.276;2022-09-01T02:42:28;9.07;;;8.10;;
11143;SDS011;5626;44.730;10.276;2022-09-01T02:44:58;9.00;;;8.10;;
11143;SDS011;5626;44.730;10.276;2022-09-01T02:47:28;8.68;;;7.97;;
11143;SDS011;5626;44.730;10.276;2022-09-01T02:49:58;8.13;;;7.40;;
11143;SDS011;5626;44.730;10.276;2022-09-01T02:52:28;9.13;;;8.13;;
11143;SDS011;5626;44.730;10.276;2022-09-01T02:55:02;8.77;;;8.00;;
11143;SDS011;5626;44.730;10.276;2022-09-01T02:57:33;7.88;;;7.18;;
11143;SDS011;5626;44.730;10.276;2022-09-01T03:00:04;10.02;;;8.68;;
11143;SDS011;5626;44.730;10.276;2022-09-01T03:02:50;10.48;;;9.48;;
11143;SDS011;5626;44.730;10.276;2022-09-01T03:05:21;9.20;;;8.40;;
11143;SDS011;5626;44.730;10.276;2022-09-01T03:07:54;9.48;;;8.68;;
11143;SDS011;5626;44.730;10.276;2022-09-01T03:10:27;9.88;;;9.05;;
11143;SDS011;5626;44.730;10.276;2022-09-01T03:13:01;9.25;;;8.40;;
11143;SDS011;5626;44.730;10.276;2022-09-01T03:15:34;9.70;;;8.70;;
11143;SDS011;5626;44.730;10.276;2022-09-01T03:18:05;8.65;;;7.82;;
11143;SDS011;5626;44.730;10.276;2022-09-01T03:20:37;9.55;;;8.65;;
11143;SDS011;5626;44.730;10.276;2022-09-01T03:23:10;9.38;;;8.48;;
11143;SDS011;5626;44.730;10.276;2022-09-01T03:25:42;9.30;;;8.50;;
11143;SDS011;5626;44.730;10.276;2022-09-01T03:28:15;10.05;;;9.15;;
11143;SDS011;5626;44.730;10.276;2022-09-01T03:30:46;9.00;;;8.10;;
11143;SDS011;5626;44.730;10.276;2022-09-01T03:33:18;9.48;;;8.68;;
11143;SDS011;5626;44.730;10.276;2022-09-01T03:35:49;10.57;;;9.68;;
11143;SDS011;5626;44.730;10.276;2022-09-01T03:38:19;9.25;;;8.20;;
11143;SDS011;5626;44.730;10.276;2022-09-01T03:40:52;9.00;;;8.27;;
11143;SDS011;5626;44.730;10.276;2022-09-01T03:43:27;9.90;;;9.13;;
11143;SDS011;5626;44.730;10.276;2022-09-01T03:45:57;11.02;;;10.07;;
11143;SDS011;5626;44.730;10.276;2022-09-01T03:48:28;10.80;;;8.57;;
11143;SDS011;5626;44.730;10.276;2022-09-01T03:50:59;10.00;;;9.10;;
11143;SDS011;5626;44.730;10.276;2022-09-01T03:53:30;9.18;;;8.32;;
11143;SDS011;5626;44.730;10.276;2022-09-01T03:56:05;10.65;;;9.85;;
11143;SDS011;5626;44.730;10.276;2022-09-01T03:58:37;11.02;;;10.02;;
11143;SDS011;5626;44.730;10.276;2022-09-01T04:01:10;10.50;;;9.50;;
11143;SDS011;5626;44.730;10.276;2022-09-01T04:03:40;10.25;;;9.35;;
11143;SDS011;5626;44.730;10.276;2022-09-01T04:06:18;11.18;;;10.02;;
11143;SDS011;5626;44.730;10.276;2022-09-01T04:08:50;10.60;;;9.55;;
11143;SDS011;5626;44.730;10.276;2022-09-01T04:11:31;10.55;;;9.63;;
11143;SDS011;5626;44.730;10.276;2022-09-01T04:14:03;11.10;;;10.10;;
11143;SDS011;5626;44.730;10.276;2022-09-01T04:16:36;8.38;;;7.43;;
11143;SDS011;5626;44.730;10.276;2022-09-01T04:19:24;9.55;;;8.63;;
11143;SDS011;5626;44.730;10.276;2022-09-01T04:21:56;9.98;;;9.05;;
11143;SDS011;5626;44.730;10.276;2022-09-01T04:24:37;8.80;;;8.15;;
11143;SDS011;5626;44.730;10.276;2022-09-01T04:27:11;9.60;;;8.77;;
11143;SDS011;5626;44.730;10.276;2022-09-01T04:29:44;10.50;;;9.40;;
11143;SDS011;5626;44.730;10.276;2022-09-01T04:32:15;10.75;;;8.77;;
11143;SDS011;5626;44.730;10.276;2022-09-01T04:34:57;9.43;;;8.52;;
11143;SDS011;5626;44.730;10.276;2022-09-01T04:37:28;9.52;;;8.57;;
11143;SDS011;5626;44.730;10.276;2022-09-01T04:40:01;9.85;;;8.85;;
11143;SDS011;5626;44.730;10.276;2022-09-01T04:42:32;10.38;;;9.35;;
11143;SDS011;5626;44.730;10.276;2022-09-01T04:45:05;9.98;;;9.18;;
11143;SDS011;5626;44.730;10.276;2022-09-01T04:47:40;10.57;;;9.55;;
11143;SDS011;5626;44.730;10.276;2022-09-01T04:50:16;10.57;;;9.57;;
11143;SDS011;5626;44.730;10.276;2022-09-01T04:53:05;10.52;;;9.45;;
11143;SDS011;5626;44.730;10.276;2022-09-01T04:55:44;11.20;;;10.20;;
11143;SDS011;5626;44.730;10.276;2022-09-01T04:58:15;10.48;;;9.57;;
11143;SDS011;5626;44.730;10.276;2022-09-01T05:00:47;11.05;;;10.00;;
11143;SDS011;5626;44.730;10.276;2022-09-01T05:03:20;11.00;;;10.05;;
11143;SDS011;5626;44.730;10.276;2022-09-01T05:06:00;12.25;;;11.05;;
11143;SDS011;5626;44.730;10.276;2022-09-01T05:08:31;11.13;;;10.10;;
11143;SDS011;5626;44.730;10.276;2022-09-01T05:11:05;10.80;;;9.77;;
11143;SDS011;5626;44.730;10.276;2022-09-01T05:13:42;11.43;;;10.30;;
11143;SDS011;5626;44.730;10.276;2022-09-01T05:16:15;12.40;;;10.40;;
11143;SDS011;5626;44.730;10.276;2022-09-01T05:18:53;12.00;;;9.90;;
11143;SDS011;5626;44.730;10.276;2022-09-01T05:21:26;12.50;;;11.20;;
11143;SDS011;5626;44.730;10.276;2022-09-01T05:23:58;11.95;;;10.88;;
11143;SDS011;5626;44.730;10.276;2022-09-01T05:26:31;12.77;;;11.40;;
11143;SDS011;5626;44.730;10.276;2022-09-01T05:29:02;12.52;;;11.27;;
11143;SDS011;5626;44.730;10.276;2022-09-01T05:31:39;12.85;;;11.55;;
11143;SDS011;5626;44.730;10.276;2022-09-01T05:34:10;12.00;;;10.40;;
11143;SDS011;5626;44.730;10.276;2022-09-01T05:36:41;10.65;;;9.65;;
11143;SDS011;5626;44.730;10.276;2022-09-01T05:39:13;12.70;;;10.85;;
11143;SDS011;5626;44.730;10.276;2022-09-01T05:41:42;12.15;;;11.05;;
11143;SDS011;5626;44.730;10.276;2022-09-01T05:44:16;12.75;;;11.45;;
11143;SDS011;5626;44.730;10.276;2022-09-01T05:46:52;12.80;;;11.40;;
11143;SDS011;5626;44.730;10.276;2022-09-01T05:49:22;14.95;;;11.77;;
11143;SDS011;5626;44.730;10.276;2022-09-01T05:51:53;12.48;;;11.18;;
11143;SDS011;5626;44.730;10.276;2022-09-01T05:54:27;11.48;;;10.48;;
11143;SDS011;5626;44.730;10.276;2022-09-01T05:56:57;12.35;;;11.13;;
11143;SDS011;5626;44.730;10.276;2022-09-01T05:59:34;12.52;;;11.32;;
11143;SDS011;5626;44.730;10.276;2022-09-01T06:02:15;12.43;;;11.32;;
11143;SDS011;5626;44.730;10.276;2022-09-01T06:04:45;13.10;;;11.98;;
11143;SDS011;5626;44.730;10.276;2022-09-01T06:07:23;15.50;;;13.52;;
11143;SDS011;5626;44.730;10.276;2022-09-01T06:09:57;13.15;;;11.95;;
11143;SDS011;5626;44.730;10.276;2022-09-01T06:12:27;14.45;;;12.95;;
11143;SDS011;5626;44.730;10.276;2022-09-01T06:14:56;14.73;;;13.32;;
11143;SDS011;5626;44.730;10.276;2022-09-01T06:17:28;15.75;;;14.15;;
11143;SDS011;5626;44.730;10.276;2022-09-01T06:20:01;14.77;;;13.27;;
11143;SDS011;5626;44.730;10.276;2022-09-01T06:22:38;14.93;;;13.52;;
11143;SDS011;5626;44.730;10.276;2022-09-01T06:25:08;14.30;;;12.82;;
11143;SDS011;5626;44.730;10.276;2022-09-01T06:27:42;15.27;;;13.45;;
11143;SDS011;5626;44.730;10.276;2022-09-01T06:30:15;14.07;;;12.80;;
11143;SDS011;5626;44.730;10.276;2022-09-01T06:33:05;13.93;;;12.52;;
11143;SDS011;5626;44.730;10.276;2022-09-01T06:35:41;15.25;;;13.68;;
11143;SDS011;5626;44.730;10.276;2022-09-01T06:38:15;16.00;;;14.25;;
11143;SDS011;5626;44.730;10.276;2022-09-01T06:40:47;15.35;;;13.93;;
11143;SDS011;5626;44.730;10.276;2022-09-01T06:43:19;17.00;;;14.90;;
11143;SDS011;5626;44.730;10.276;2022-09-01T06:45:50;19.33;;;13.38;;
11143;SDS011;5626;44.730;10.276;2022-09-01T06:48:24;16.50;;;14.80;;
11143;SDS011;5626;44.730;10.276;2022-09-01T06:51:01;17.77;;;16.02;;
11143;SDS011;5626;44.730;10.276;2022-09-01T06:53:51;18.38;;;16.20;;
11143;SDS011;5626;44.730;10.276;2022-09-01T06:56:25;16.02;;;14.43;;
11143;SDS011;5626;44.730;10.276;2022-09-01T06:58:58;20.85;;;16.73;;
11143;SDS011;5626;44.730;10.276;2022-09-01T07:01:33;17.20;;;15.40;;
11143;SDS011;5626;44.730;10.276;2022-09-01T07:04:04;18.15;;;16.40;;
11143;SDS011;5626;44.730;10.276;2022-09-01T07:06:40;15.75;;;14.35;;
11143;SDS011;5626;44.730;10.276;2022-09-01T07:09:46;14.05;;;12.80;;
11143;SDS011;5626;44.730;10.276;2022-09-01T07:12:35;18.00;;;16.17;;
11143;SDS011;5626;44.730;10.276;2022-09-01T07:15:25;17.48;;;15.38;;
11143;SDS011;5626;44.730;10.276;2022-09-01T07:18:15;19.48;;;17.48;;
11143;SDS011;5626;44.730;10.276;2022-09-01T07:20:48;11.18;;;10.18;;
11143;SDS011;5626;44.730;10.276;2022-09-01T07:23:36;12.95;;;11.70;;
11143;SDS011;5626;44.730;10.276;2022-09-01T07:26:14;16.38;;;14.70;;
11143;SDS011;5626;44.730;10.276;2022-09-01T07:28:55;14.93;;;13.35;;
11143;SDS011;5626;44.730;10.276;2022-09-01T07:31:29;13.93;;;12.63;;
11143;SDS011;5626;44.730;10.276;2022-09-01T07:34:17;12.43;;;10.63;;
11143;SDS011;5626;44.730;10.276;2022-09-01T07:37:10;12.90;;;11.60;;
11143;SDS011;5626;44.730;10.276;2022-09-01T07:40:00;12.32;;;11.15;;
11143;SDS011;5626;44.730;10.276;2022-09-01T07:43:13;13.65;;;12.35;;
11143;SDS011;5626;44.730;10.276;2022-09-01T07:46:04;13.68;;;12.35;;
11143;SDS011;5626;44.730;10.276;2022-09-01T07:48:54;14.25;;;12.95;;
11143;SDS011;5626;44.730;10.276;2022-09-01T07:51:44;14.48;;;13.07;;
11143;SDS011;5626;44.730;10.276;2022-09-01T07:54:20;11.73;;;10.57;;
11143;SDS011;5626;44.730;10.276;2022-09-01T07:56:51;12.85;;;11.65;;
11143;SDS011;5626;44.730;10.276;2022-09-01T07:59:22;12.18;;;10.90;;
11143;SDS011;5626;44.730;10.276;2022-09-01T08:02:05;12.95;;;11.75;;
11143;SDS011;5626;44.730;10.276;2022-09-01T08:04:35;12.57;;;11.48;;
11143;SDS011;5626;44.730;10.276;2022-09-01T08:07:08;13.95;;;11.80;;
11143;SDS011;5626;44.730;10.276;2022-09-01T08:09:46;10.77;;;9.77;;
11143;SDS011;5626;44.730;10.276;2022-09-01T08:12:16;10.20;;;9.20;;
11143;SDS011;5626;44.730;10.276;2022-09-01T08:14:51;8.00;;;7.05;;
11143;SDS011;5626;44.730;10.276;2022-09-01T08:17:41;7.78;;;7.07;;
11143;SDS011;5626;44.730;10.276;2022-09-01T08:20:21;8.18;;;6.90;;
11143;SDS011;5626;44.730;10.276;2022-09-01T08:22:53;10.02;;;9.00;;
11143;SDS011;5626;44.730;10.276;2022-09-01T08:25:32;10.73;;;8.50;;
11143;SDS011;5626;44.730;10.276;2022-09-01T08:28:04;7.10;;;6.50;;
11143;SDS011;5626;44.730;10.276;2022-09-01T08:30:34;8.57;;;7.75;;
11143;SDS011;5626;44.730;10.276;2022-09-01T08:33:06;9.10;;;7.78;;
11143;SDS011;5626;44.730;10.276;2022-09-01T08:35:42;7.25;;;6.65;;
11143;SDS011;5626;44.730;10.276;2022-09-01T08:38:15;8.95;;;7.65;;
11143;SDS011;5626;44.730;10.276;2022-09-01T08:40:50;7.80;;;6.82;;
11143;SDS011;5626;44.730;10.276;2022-09-01T08:43:27;7.88;;;7.20;;
11143;SDS011;5626;44.730;10.276;2022-09-01T08:46:06;7.93;;;7.22;;
11143;SDS011;5626;44.730;10.276;2022-09-01T08:48:41;8.05;;;6.75;;
11143;SDS011;5626;44.730;10.276;2022-09-01T08:51:56;6.68;;;6.07;;
11143;SDS011;5626;44.730;10.276;2022-09-01T08:54:33;7.60;;;6.90;;
11143;SDS011;5626;44.730;10.276;2022-09-01T08:57:12;7.68;;;6.97;;
11143;SDS011;5626;44.730;10.276;2022-09-01T09:00:03;7.90;;;7.20;;
11143;SDS011;5626;44.730;10.276;2022-09-01T09:02:39;7.95;;;7.25;;
11143;SDS011;5626;44.730;10.276;2022-09-01T09:05:25;9.43;;;8.73;;
11143;SDS011;5626;44.730;10.276;2022-09-01T09:08:08;8.90;;;8.02;;
11143;SDS011;5626;44.730;10.276;2022-09-01T09:10:47;9.35;;;8.10;;
11143;SDS011;5626;44.730;10.276;2022-09-01T09:13:25;9.27;;;8.38;;
11143;SDS011;5626;44.730;10.276;2022-09-01T09:16:05;10.27;;;7.90;;
11143;SDS011;5626;44.730;10.276;2022-09-01T09:18:39;7.18;;;6.60;;
11143;SDS011;5626;44.730;10.276;2022-09-01T09:21:28;10.23;;;7.03;;
11143;SDS011;5626;44.730;10.276;2022-09-01T09:24:06;7.55;;;6.40;;
11143;SDS011;5626;44.730;10.276;2022-09-01T09:26:38;8.18;;;7.47;;
11143;SDS011;5626;44.730;10.276;2022-09-01T09:29:10;7.10;;;6.50;;
11143;SDS011;5626;44.730;10.276;2022-09-01T09:31:39;6.68;;;6.07;;
11143;SDS011;5626;44.730;10.276;2022-09-01T09:34:17;9.57;;;8.57;;
11143;SDS011;5626;44.730;10.276;2022-09-01T09:37:15;7.20;;;6.70;;
11143;SDS011;5626;44.730;10.276;2022-09-01T09:42:37;7.70;;;7.03;;
11143;SDS011;5626;44.730;10.276;2022-09-01T09:45:20;8.15;;;7.15;;
11143;SDS011;5626;44.730;10.276;2022-09-01T09:47:52;8.80;;;8.00;;
11143;SDS011;5626;44.730;10.276;2022-09-01T09:50:24;8.05;;;7.25;;
11143;SDS011;5626;44.730;10.276;2022-09-01T09:53:10;6.22;;;5.63;;
11143;SDS011;5626;44.730;10.276;2022-09-01T09:55:50;6.10;;;5.60;;
11143;SDS011;5626;44.730;10.276;2022-09-01T09:58:27;8.23;;;6.97;;
11143;SDS011;5626;44.730;10.276;2022-09-01T10:01:06;7.72;;;6.30;;
11143;SDS011;5626;44.730;10.276;2022-09-01T10:03:42;6.13;;;5.57;;
11143;SDS011;5626;44.730;10.276;2022-09-01T10:06:28;7.30;;;6.65;;
11143;SDS011;5626;44.730;10.276;2022-09-01T10:09:00;6.03;;;5.30;;
11143;SDS011;5626;44.730;10.276;2022-09-01T10:11:32;6.43;;;5.82;;
11143;SDS011;5626;44.730;10.276;2022-09-01T10:14:06;6.50;;;4.70;;
11143;SDS011;5626;44.730;10.276;2022-09-01T10:16:51;5.05;;;4.38;;
11143;SDS011;5626;44.730;10.276;2022-09-01T10:19:25;3.70;;;3.40;;
11143;SDS011;5626;44.730;10.276;2022-09-01T10:22:00;3.40;;;3.10;;
11143;SDS011;5626;44.730;10.276;2022-09-01T10:24:31;3.70;;;3.40;;
11143;SDS011;5626;44.730;10.276;2022-09-01T10:27:06;4.07;;;3.67;;
11143;SDS011;5626;44.730;10.276;2022-09-01T10:29:47;4.22;;;3.83;;
11143;SDS011;5626;44.730;10.276;2022-09-01T10:32:41;4.00;;;3.70;;
11143;SDS011;5626;44.730;10.276;2022-09-01T10:35:16;3.88;;;3.45;;
11143;SDS011;5626;44.730;10.276;2022-09-01T10:37:51;3.95;;;3.65;;
11143;SDS011;5626;44.730;10.276;2022-09-01T10:40:35;4.00;;;3.70;;
11143;SDS011;5626;44.730;10.276;2022-09-01T10:43:28;3.15;;;2.95;;
11143;SDS011;5626;44.730;10.276;2022-09-01T10:46:09;3.40;;;3.10;;
11143;SDS011;5626;44.730;10.276;2022-09-01T10:49:21;3.15;;;2.95;;
11143;SDS011;5626;44.730;10.276;2022-09-01T10:55:40;3.63;;;3.10;;
11143;SDS011;5626;44.730;10.276;2022-09-01T10:58:20;3.10;;;2.83;;
11143;SDS011;5626;44.730;10.276;2022-09-01T11:01:26;2.60;;;2.45;;
11143;SDS011;5626;44.730;10.276;2022-09-01T11:05:09;3.25;;;2.90;;
11143;SDS011;5626;44.730;10.276;2022-09-01T11:07:46;3.40;;;3.20;;
11143;SDS011;5626;44.730;10.276;2022-09-01T11:10:28;3.75;;;3.47;;
11143;SDS011;5626;44.730;10.276;2022-09-01T11:16:27;3.10;;;2.80;;
11143;SDS011;5626;44.730;10.276;2022-09-01T11:19:16;2.88;;;2.67;;
11143;SDS011;5626;44.730;10.276;2022-09-01T11:22:08;3.13;;;2.92;;
11143;SDS011;5626;44.730;10.276;2022-09-01T11:24:47;3.65;;;2.83;;
11143;SDS011;5626;44.730;10.276;2022-09-01T11:30:33;3.75;;;3.17;;
11143;SDS011;5626;44.730;10.276;2022-09-01T11:33:24;3.47;;;3.17;;
11143;SDS011;5626;44.730;10.276;2022-09-01T11:35:59;3.47;;;3.03;;
11143;SDS011;5626;44.730;10.276;2022-09-01T11:38:33;3.10;;;2.90;;
11143;SDS011;5626;44.730;10.276;2022-09-01T11:41:18;3.55;;;3.20;;
11143;SDS011;5626;44.730;10.276;2022-09-01T11:43:53;3.45;;;3.20;;
11143;SDS011;5626;44.730;10.276;2022-09-01T11:46:26;6.68;;;3.35;;
11143;SDS011;5626;44.730;10.276;2022-09-01T11:49:00;3.95;;;3.50;;
11143;SDS011;5626;44.730;10.276;2022-09-01T11:51:38;3.80;;;3.50;;
11143;SDS011;5626;44.730;10.276;2022-09-01T11:54:11;3.60;;;3.30;;
11143;SDS011;5626;44.730;10.276;2022-09-01T11:56:43;3.70;;;3.40;;
11143;SDS011;5626;44.730;10.276;2022-09-01T11:59:14;3.95;;;3.65;;
11143;SDS011;5626;44.730;10.276;2022-09-01T12:01:58;3.85;;;3.55;;
11143;SDS011;5626;44.730;10.276;2022-09-01T12:04:30;3.60;;;3.28;;
11143;SDS011;5626;44.730;10.276;2022-09-01T12:07:03;2.80;;;2.60;;
11143;SDS011;5626;44.730;10.276;2022-09-01T12:09:35;3.00;;;2.72;;
11143;SDS011;5626;44.730;10.276;2022-09-01T12:12:13;5.18;;;2.65;;
11143;SDS011;5626;44.730;10.276;2022-09-01T12:14:57;4.43;;;4.03;;
11143;SDS011;5626;44.730;10.276;2022-09-01T12:17:34;2.90;;;2.60;;
11143;SDS011;5626;44.730;10.276;2022-09-01T12:22:58;4.88;;;2.70;;
11143;SDS011;5626;44.730;10.276;2022-09-01T12:25:29;3.67;;;2.50;;
11143;SDS011;5626;44.730;10.276;2022-09-01T12:28:01;3.30;;;2.90;;
11143;SDS011;5626;44.730;10.276;2022-09-01T12:30:33;2.60;;;2.40;;
11143;SDS011;5626;44.730;10.276;2022-09-01T12:33:06;2.70;;;2.50;;
11143;SDS011;5626;44.730;10.276;2022-09-01T12:38:49;5.28;;;2.58;;
11143;SDS011;5626;44.730;10.276;2022-09-01T12:41:24;4.60;;;2.17;;
11143;SDS011;5626;44.730;10.276;2022-09-01T12:46:58;4.85;;;2.70;;
11143;SDS011;5626;44.730;10.276;2022-09-01T12:49:33;2.45;;;2.10;;
11143;SDS011;5626;44.730;10.276;2022-09-01T12:52:09;2.50;;;2.30;;
11143;SDS011;5626;44.730;10.276;2022-09-01T12:54:46;2.40;;;2.20;;
11143;SDS011;5626;44.730;10.276;2022-09-01T12:57:25;2.53;;;2.33;;
11143;SDS011;5626;44.730;10.276;2022-09-01T13:02:48;2.55;;;2.35;;
11143;SDS011;5626;44.730;10.276;2022-09-01T13:05:21;7.15;;;2.25;;
11143;SDS011;5626;44.730;10.276;2022-09-01T13:07:57;4.65;;;2.25;;
11143;SDS011;5626;44.730;10.276;2022-09-01T13:10:30;7.57;;;2.35;;
11143;SDS011;5626;44.730;10.276;2022-09-01T13:13:02;2.45;;;2.20;;
11143;SDS011;5626;44.730;10.276;2022-09-01T13:15:32;3.00;;;2.13;;
11143;SDS011;5626;44.730;10.276;2022-09-01T13:18:04;3.00;;;1.88;;
11143;SDS011;5626;44.730;10.276;2022-09-01T13:20:34;3.42;;;2.38;;
11143;SDS011;5626;44.730;10.276;2022-09-01T13:23:04;2.58;;;2.30;;
11143;SDS011;5626;44.730;10.276;2022-09-01T13:25:33;3.42;;;1.90;;
11143;SDS011;5626;44.730;10.276;2022-09-01T13:28:03;4.00;;;2.10;;
11143;SDS011;5626;44.730;10.276;2022-09-01T13:30:34;2.22;;;1.90;;
11143;SDS011;5626;44.730;10.276;2022-09-01T13:33:05;2.05;;;1.60;;
11143;SDS011;5626;44.730;10.276;2022-09-01T13:35:45;2.38;;;1.70;;
11143;SDS011;5626;44.730;10.276;2022-09-01T13:38:15;1.95;;;1.75;;
11143;SDS011;5626;44.730;10.276;2022-09-01T13:40:46;3.15;;;1.92;;
11143;SDS011;5626;44.730;10.276;2022-09-01T13:43:18;1.60;;;1.50;;
11143;SDS011;5626;44.730;10.276;2022-09-01T13:45:49;2.55;;;1.85;;
11143;SDS011;5626;44.730;10.276;2022-09-01T13:48:20;1.95;;;1.63;;
11143;SDS011;5626;44.730;10.276;2022-09-01T13:50:50;1.85;;;1.60;;
11143;SDS011;5626;44.730;10.276;2022-09-01T13:53:40;5.38;;;1.88;;
11143;SDS011;5626;44.730;10.276;2022-09-01T13:56:09;4.95;;;2.08;;
11143;SDS011;5626;44.730;10.276;2022-09-01T13:58:39;6.97;;;1.73;;
11143;SDS011;5626;44.730;10.276;2022-09-01T14:01:08;2.65;;;1.80;;
11143;SDS011;5626;44.730;10.276;2022-09-01T14:03:41;1.90;;;1.70;;
11143;SDS011;5626;44.730;10.276;2022-09-01T14:06:13;2.00;;;1.83;;
11143;SDS011;5626;44.730;10.276;2022-09-01T14:08:42;2.10;;;1.90;;
11143;SDS011;5626;44.730;10.276;2022-09-01T14:11:15;1.77;;;1.67;;
11143;SDS011;5626;44.730;10.276;2022-09-01T14:13:46;2.33;;;1.60;;
11143;SDS011;5626;44.730;10.276;2022-09-01T14:16:15;2.42;;;1.77;;
11143;SDS011;5626;44.730;10.276;2022-09-01T14:18:46;2.40;;;2.00;;
11143;SDS011;5626;44.730;10.276;2022-09-01T14:21:16;2.25;;;1.80;;
11143;SDS011;5626;44.730;10.276;2022-09-01T14:23:45;2.47;;;1.70;;
11143;SDS011;5626;44.730;10.276;2022-09-01T14:26:15;1.75;;;1.60;;
11143;SDS011;5626;44.730;10.276;2022-09-01T14:28:45;2.63;;;1.80;;
11143;SDS011;5626;44.730;10.276;2022-09-01T14:31:16;4.25;;;1.60;;
11143;SDS011;5626;44.730;10.276;2022-09-01T14:33:48;3.45;;;1.67;;
11143;SDS011;5626;44.730;10.276;2022-09-01T14:36:18;1.90;;;1.80;;
11143;SDS011;5626;44.730;10.276;2022-09-01T14:38:50;4.63;;;1.80;;
11143;SDS011;5626;44.730;10.276;2022-09-01T14:41:21;2.63;;;1.70;;
11143;SDS011;5626;44.730;10.276;2022-09-01T14:43:52;1.95;;;1.70;;
11143;SDS011;5626;44.730;10.276;2022-09-01T14:46:29;1.98;;;1.83;;
11143;SDS011;5626;44.730;10.276;2022-09-01T14:49:02;2.33;;;1.65;;
11143;SDS011;5626;44.730;10.276;2022-09-01T14:51:32;1.88;;;1.58;;
11143;SDS011;5626;44.730;10.276;2022-09-01T14:54:23;1.92;;;1.50;;
11143;SDS011;5626;44.730;10.276;2022-09-01T14:56:52;2.22;;;1.83;;
11143;SDS011;5626;44.730;10.276;2022-09-01T14:59:42;2.80;;;1.85;;
11143;SDS011;5626;44.730;10.276;2022-09-01T15:02:11;4.55;;;1.80;;
11143;SDS011;5626;44.730;10.276;2022-09-01T15:04:42;2.00;;;1.80;;
11143;SDS011;5626;44.730;10.276;2022-09-01T15:07:12;2.10;;;1.50;;
11143;SDS011;5626;44.730;10.276;2022-09-01T15:09:41;1.90;;;1.80;;
11143;SDS011;5626;44.730;10.276;2022-09-01T15:12:11;2.90;;;1.60;;
11143;SDS011;5626;44.730;10.276;2022-09-01T15:14:41;2.25;;;1.65;;
11143;SDS011;5626;44.730;10.276;2022-09-01T15:17:10;3.92;;;1.77;;
11143;SDS011;5626;44.730;10.276;2022-09-01T15:19:40;1.90;;;1.67;;
11143;SDS011;5626;44.730;10.276;2022-09-01T15:22:10;3.00;;;2.25;;
11143;SDS011;5626;44.730;10.276;2022-09-01T15:24:40;1.70;;;1.60;;
11143;SDS011;5626;44.730;10.276;2022-09-01T15:27:10;2.38;;;1.70;;
11143;SDS011;5626;44.730;10.276;2022-09-01T15:29:40;1.77;;;1.65;;
11143;SDS011;5626;44.730;10.276;2022-09-01T15:32:14;2.47;;;1.80;;
11143;SDS011;5626;44.730;10.276;2022-09-01T15:34:43;1.95;;;1.60;;
11143;SDS011;5626;44.730;10.276;2022-09-01T15:37:14;1.98;;;1.80;;
11143;SDS011;5626;44.730;10.276;2022-09-01T15:39:44;2.40;;;1.60;;
11143;SDS011;5626;44.730;10.276;2022-09-01T15:42:13;2.03;;;1.73;;
11143;SDS011;5626;44.730;10.276;2022-09-01T15:44:43;2.58;;;1.98;;
11143;SDS011;5626;44.730;10.276;2022-09-01T15:47:13;4.85;;;1.88;;
11143;SDS011;5626;44.730;10.276;2022-09-01T15:49:43;3.67;;;1.75;;
11143;SDS011;5626;44.730;10.276;2022-09-01T15:52:12;2.17;;;1.77;;